Estación Meteorológica Peña el Pijo (Robertgarden) [ 09/23/17 05:48:14 CEST ]

Fecha Hora Presion(HPa) Temp (°C) Humedad % Rocio (°C) Viento ( m/s) Direccion Lluvia 1Hora(mm) Lluvia 24H(mm) LLuvia Total(mm)
2017-Jul-16 01:02:06 1014.700 19.1 75 14.5         1437.96
2017-Jul-16 02:01:45 1014.900 18.5 79 14.8         1437.96
2017-Jul-16 03:01:23 1014.900 18.2 79 14.5         1437.96
2017-Jul-16 04:01:20 1014.500 16.8 80 13.3         1437.96
2017-Jul-16 05:01:27 1014.300 15.5 81 12.3         1437.96
2017-Jul-16 06:02:05 1014.200 14.8 83 11.9         1437.96
2017-Jul-16 07:01:44 1014.200 14.1 82 11.1         1437.96
2017-Jul-16 08:01:46 1014.400 14.9 83 12.0         1437.96
2017-Jul-16 09:01:52 1014.300 20.1 75 15.5         1437.96
2017-Jul-16 10:01:42 1014.300 25.3 62 17.5         1437.96
2017-Jul-16 11:01:54 1014.500 28.4 46 16.0         1437.96
2017-Jul-16 12:01:54 1014.500 32.6 34 14.6         1437.96
2017-Jul-16 13:01:32 1014.500 34.1 28 12.9         1437.96
2017-Jul-16 14:01:46 1014.300 33.5 26 11.2         1437.96
2017-Jul-16 15:01:29 1014.100 34.4 26 11.9         1437.96
2017-Jul-16 16:02:00 1014.000 34.3 25 11.2         1437.96
2017-Jul-16 17:01:38 1013.700 35.3 26 12.7         1437.96
2017-Jul-16 18:01:40 1013.500 33.4 28 12.3         1437.96
2017-Jul-16 19:01:48 1013.200 32.2 28 11.3         1437.96
2017-Jul-16 20:01:50 1013.300 30.8 30 11.2         1437.96
2017-Jul-16 21:01:58 1013.500 27.4 35 10.5         1437.96
2017-Jul-16 22:01:49 1014.000 25.0 39 10.1         1437.96
2017-Jul-16 23:01:36 1014.700 22.9 43 9.6         1437.96

Temperatura Máxima:35°    Temperatura Mínima:14°
Presión Máxima:1014.900 Hpa    Presión Mínima:1013.200 Hpa


Volver